createdAt,value
2024-03-26T00:00:57.223Z,4.36
2024-03-26T00:03:25.595Z,4.30
2024-03-26T00:05:53.973Z,4.20
2024-03-26T00:08:22.131Z,4.14
2024-03-26T00:10:50.466Z,4.09
2024-03-26T00:13:21.910Z,4.03
2024-03-26T00:15:50.249Z,3.98
2024-03-26T00:18:18.492Z,3.93
2024-03-26T00:20:46.796Z,3.88
2024-03-26T00:23:18.342Z,3.79
2024-03-26T00:25:46.711Z,3.70
2024-03-26T00:28:15.035Z,3.63
2024-03-26T00:30:43.514Z,3.57
2024-03-26T00:33:11.790Z,3.51
2024-03-26T00:35:40.089Z,3.45
2024-03-26T00:38:09.066Z,3.39
2024-03-26T00:40:37.951Z,3.33
2024-03-26T00:43:06.388Z,3.23
2024-03-26T00:45:38.461Z,3.15
2024-03-26T00:48:09.831Z,3.09
2024-03-26T00:50:44.023Z,2.97
2024-03-26T00:53:13.162Z,2.92
2024-03-26T00:55:44.747Z,2.89
2024-03-26T00:58:16.995Z,2.80
2024-03-26T01:00:55.406Z,2.70
2024-03-26T01:03:51.304Z,2.63
2024-03-26T01:06:20.351Z,2.53
2024-03-26T01:09:04.283Z,2.43
2024-03-26T01:11:35.237Z,2.31
2024-03-26T01:14:03.663Z,2.23
2024-03-26T01:16:43.822Z,2.17
2024-03-26T01:19:15.259Z,2.11
2024-03-26T01:21:47.061Z,2.06
2024-03-26T01:24:15.460Z,2.00
2024-03-26T01:26:49.745Z,1.87
2024-03-26T01:29:21.869Z,1.75
2024-03-26T01:31:50.534Z,1.63
2024-03-26T01:34:21.954Z,1.53
2024-03-26T01:36:50.308Z,1.38
2024-03-26T01:39:18.640Z,1.24
2024-03-26T01:41:51.597Z,1.16
2024-03-26T01:44:26.257Z,1.08
2024-03-26T01:50:17.748Z,0.81
2024-03-26T01:53:12.123Z,0.69
2024-03-26T01:55:44.109Z,0.61
2024-03-26T01:58:12.857Z,0.43
2024-03-26T02:00:43.049Z,0.28
2024-03-26T02:03:11.702Z,0.19
2024-03-26T02:05:42.081Z,0.11
2024-03-26T02:08:13.316Z,0.09
2024-03-26T02:10:41.891Z,0.04
2024-03-26T02:13:13.595Z,-0.02
2024-03-26T02:15:41.875Z,-0.14
2024-03-26T02:18:14.797Z,-0.28
2024-03-26T02:20:44.155Z,-0.36
2024-03-26T02:23:13.251Z,-0.39
2024-03-26T02:25:41.506Z,-0.48
2024-03-26T02:28:09.833Z,-0.55
2024-03-26T02:30:38.137Z,-0.61
2024-03-26T02:33:14.446Z,-0.63
2024-03-26T02:35:44.190Z,-0.72
2024-03-26T02:38:13.697Z,-0.81
2024-03-26T02:40:48.333Z,-0.91
2024-03-26T02:43:21.003Z,-0.96
2024-03-26T02:45:51.297Z,-0.97
2024-03-26T02:48:19.988Z,-1.00
2024-03-26T02:50:53.669Z,-1.02
2024-03-26T02:54:03.043Z,-1.07
2024-03-26T02:56:31.479Z,-1.16
2024-03-26T03:02:39.667Z,-1.29
2024-03-26T03:05:11.688Z,-1.39
2024-03-26T03:07:41.753Z,-1.47
2024-03-26T03:10:10.925Z,-1.49
2024-03-26T03:12:42.928Z,-1.56
2024-03-26T03:15:11.669Z,-1.67
2024-03-26T03:17:40.288Z,-1.72
2024-03-26T03:20:13.453Z,-1.80
2024-03-26T03:22:50.353Z,-1.90
2024-03-26T03:25:19.034Z,-1.96
2024-03-26T03:27:47.755Z,-2.05
2024-03-26T03:30:16.559Z,-2.11
2024-03-26T03:32:45.260Z,-2.15
2024-03-26T03:35:14.088Z,-2.23
2024-03-26T03:37:42.678Z,-2.28
2024-03-26T03:40:15.121Z,-2.33
2024-03-26T03:42:59.772Z,-2.38
2024-03-26T03:45:30.264Z,-2.37
2024-03-26T03:47:59.180Z,-2.36
2024-03-26T03:50:40.425Z,-2.35
2024-03-26T03:53:12.166Z,-2.37
2024-03-26T03:55:44.169Z,-2.41
2024-03-26T03:58:16.679Z,-2.41
2024-03-26T04:00:51.692Z,-2.45
2024-03-26T04:03:20.476Z,-2.50
2024-03-26T04:05:58.238Z,-2.54
2024-03-26T04:08:27.447Z,-2.59
2024-03-26T04:10:59.089Z,-2.62
2024-03-26T04:13:33.495Z,-2.66
2024-03-26T04:16:06.155Z,-2.74
2024-03-26T04:18:40.294Z,-2.85
2024-03-26T04:24:03.625Z,-2.88
2024-03-26T04:26:32.671Z,-2.92
2024-03-26T04:29:01.629Z,-2.96
2024-03-26T04:31:30.534Z,-2.98
2024-03-26T04:33:59.284Z,-3.01
2024-03-26T04:36:34.231Z,-3.03
2024-03-26T04:39:04.035Z,-3.05
2024-03-26T04:41:32.949Z,-3.08
2024-03-26T04:44:01.870Z,-3.13
2024-03-26T04:46:33.981Z,-3.21
2024-03-26T04:49:04.360Z,-3.30
2024-03-26T04:51:33.434Z,-3.37
2024-03-26T04:54:03.224Z,-3.46
2024-03-26T04:56:32.123Z,-3.49
2024-03-26T04:59:01.172Z,-3.47
2024-03-26T05:01:30.689Z,-3.48
2024-03-26T05:03:59.473Z,-3.47
2024-03-26T05:06:30.921Z,-3.48
2024-03-26T05:09:00.031Z,-3.52
2024-03-26T05:11:30.060Z,-3.54
2024-03-26T05:14:03.757Z,-3.52
2024-03-26T05:16:33.842Z,-3.56
2024-03-26T05:19:02.684Z,-3.59
2024-03-26T05:21:31.649Z,-3.60
2024-03-26T05:24:00.769Z,-3.56
2024-03-26T05:26:30.411Z,-3.53
2024-03-26T05:28:59.493Z,-3.52
2024-03-26T05:31:28.208Z,-3.52
2024-03-26T05:33:59.906Z,-3.59
2024-03-26T05:36:30.627Z,-3.67
2024-03-26T05:39:14.407Z,-3.70
2024-03-26T05:41:43.615Z,-3.70
2024-03-26T05:44:15.444Z,-3.70
2024-03-26T05:46:44.227Z,-3.68
2024-03-26T05:49:13.211Z,-3.69
2024-03-26T05:51:41.829Z,-3.73
2024-03-26T05:54:10.595Z,-3.81
2024-03-26T05:56:39.282Z,-3.82
2024-03-26T05:59:09.418Z,-3.82
2024-03-26T06:01:40.017Z,-3.85
2024-03-26T06:04:29.489Z,-3.88
2024-03-26T06:06:58.419Z,-3.93
2024-03-26T06:09:27.286Z,-3.95
2024-03-26T06:12:00.731Z,-4.00
2024-03-26T06:14:29.439Z,-3.98
2024-03-26T06:16:58.418Z,-3.99
2024-03-26T06:19:27.405Z,-4.04
2024-03-26T06:21:59.382Z,-4.06
2024-03-26T06:24:27.997Z,-4.10
2024-03-26T06:26:56.737Z,-4.13
2024-03-26T06:29:25.754Z,-4.15
2024-03-26T06:31:54.501Z,-4.17
2024-03-26T06:34:23.233Z,-4.17
2024-03-26T06:36:52.864Z,-4.16
2024-03-26T06:39:23.793Z,-4.17
2024-03-26T06:41:55.926Z,-4.21
2024-03-26T06:44:25.072Z,-4.24
2024-03-26T06:46:58.336Z,-4.27
2024-03-26T06:49:27.070Z,-4.27
2024-03-26T06:51:58.172Z,-4.29
2024-03-26T06:54:26.975Z,-4.30
2024-03-26T06:56:55.727Z,-4.30
2024-03-26T06:59:24.571Z,-4.32
2024-03-26T07:10:26.511Z,-4.41
2024-03-26T07:12:56.321Z,-4.49
2024-03-26T07:15:27.492Z,-4.60
2024-03-26T07:17:56.148Z,-4.62
2024-03-26T07:23:34.849Z,-4.69
2024-03-26T07:26:03.706Z,-4.69
2024-03-26T07:28:39.987Z,-4.68
2024-03-26T07:31:14.556Z,-4.68
2024-03-26T07:33:48.843Z,-4.72
2024-03-26T07:36:37.129Z,-4.80
2024-03-26T07:39:21.781Z,-4.82
2024-03-26T07:41:51.057Z,-4.84
2024-03-26T07:44:19.709Z,-4.83
2024-03-26T07:46:48.490Z,-4.82
2024-03-26T07:49:17.198Z,-4.80
2024-03-26T08:02:01.724Z,-4.93
2024-03-26T08:04:30.339Z,-4.97
2024-03-26T08:06:59.100Z,-5.02
2024-03-26T08:09:28.328Z,-5.05
2024-03-26T08:11:57.059Z,-5.05
2024-03-26T08:14:29.962Z,-5.04
2024-03-26T08:17:02.778Z,-5.03
2024-03-26T08:19:35.764Z,-5.01
2024-03-26T08:22:07.586Z,-5.01
2024-03-26T08:24:36.521Z,-5.02
2024-03-26T08:27:09.246Z,-4.97
2024-03-26T08:29:37.896Z,-4.95
2024-03-26T08:32:15.677Z,-4.95
2024-03-26T08:34:47.108Z,-4.93
2024-03-26T08:37:21.212Z,-4.94
2024-03-26T08:39:52.878Z,-4.93
2024-03-26T08:42:33.142Z,-4.94
2024-03-26T08:45:04.186Z,-4.98
2024-03-26T08:47:53.002Z,-5.03
2024-03-26T08:59:00.893Z,-5.04
2024-03-26T09:01:35.076Z,-5.06
2024-03-26T09:04:03.914Z,-5.13
2024-03-26T09:06:36.656Z,-5.12
2024-03-26T09:09:13.540Z,-5.10
2024-03-26T09:11:45.908Z,-5.11
2024-03-26T09:14:16.944Z,-5.18
2024-03-26T09:16:48.840Z,-5.18
2024-03-26T09:19:17.624Z,-5.17
2024-03-26T09:21:52.388Z,-5.16
2024-03-26T09:24:33.524Z,-5.16
2024-03-26T09:27:08.720Z,-5.17
2024-03-26T09:29:40.654Z,-5.21
2024-03-26T09:32:28.603Z,-5.23
2024-03-26T09:35:09.364Z,-5.21
2024-03-26T09:37:52.794Z,-5.20
2024-03-26T09:40:24.042Z,-5.26
2024-03-26T09:43:01.119Z,-5.24
2024-03-26T09:45:36.648Z,-5.22
2024-03-26T09:48:09.703Z,-5.21
2024-03-26T09:50:48.751Z,-5.22
2024-03-26T09:53:21.614Z,-5.20
2024-03-26T09:55:52.089Z,-5.20
2024-03-26T09:58:21.287Z,-5.22
2024-03-26T10:01:00.548Z,-5.23
2024-03-26T10:03:41.034Z,-5.21
2024-03-26T10:06:13.597Z,-5.21
2024-03-26T10:08:45.946Z,-5.19
2024-03-26T10:11:16.799Z,-5.19
2024-03-26T10:13:45.740Z,-5.19
2024-03-26T10:16:14.773Z,-5.22
2024-03-26T10:18:45.755Z,-5.25
2024-03-26T10:21:16.708Z,-5.28
2024-03-26T10:26:45.876Z,-5.28
2024-03-26T10:29:16.872Z,-5.30
2024-03-26T10:31:53.152Z,-5.28
2024-03-26T10:34:31.415Z,-5.28
2024-03-26T10:37:25.262Z,-5.29
2024-03-26T10:40:07.573Z,-5.29
2024-03-26T10:43:07.586Z,-5.30
2024-03-26T10:45:59.927Z,-5.29
2024-03-26T10:53:03.175Z,-5.28
2024-03-26T10:55:35.942Z,-5.29
2024-03-26T10:58:12.833Z,-5.30
2024-03-26T11:00:44.849Z,-5.27
2024-03-26T11:03:17.461Z,-5.26
2024-03-26T11:06:00.391Z,-5.27
2024-03-26T11:08:40.866Z,-5.30
2024-03-26T11:11:09.541Z,-5.34
2024-03-26T11:13:43.004Z,-5.34
2024-03-26T11:16:41.835Z,-5.33
2024-03-26T11:19:27.700Z,-5.31
2024-03-26T11:21:57.039Z,-5.28
2024-03-26T11:24:37.319Z,-5.24
2024-03-26T11:27:09.438Z,-5.24
2024-03-26T11:29:42.675Z,-5.24
2024-03-26T11:32:11.866Z,-5.20
2024-03-26T11:34:43.206Z,-5.20
2024-03-26T11:49:58.872Z,-5.15
2024-03-26T11:52:27.762Z,-5.13
2024-03-26T11:54:58.831Z,-5.08
2024-03-26T11:57:27.957Z,-5.06
2024-03-26T11:59:57.085Z,-5.06
2024-03-26T12:02:27.118Z,-5.03
2024-03-26T12:05:19.776Z,-5.00
2024-03-26T12:07:50.337Z,-4.97
2024-03-26T12:10:19.320Z,-4.95
2024-03-26T12:12:48.204Z,-4.95
2024-03-26T12:15:17.278Z,-4.95
2024-03-26T12:17:46.400Z,-4.95
2024-03-26T12:20:15.178Z,-4.93
2024-03-26T12:22:43.983Z,-4.93
2024-03-26T12:25:15.710Z,-4.92
2024-03-26T12:27:46.648Z,-4.91
2024-03-26T12:30:15.550Z,-4.93
2024-03-26T12:32:44.366Z,-4.96
2024-03-26T12:35:13.351Z,-4.93
2024-03-26T12:37:43.341Z,-4.92
2024-03-26T12:40:14.442Z,-4.87
2024-03-26T12:42:43.176Z,-4.85
2024-03-26T12:45:12.081Z,-4.87
2024-03-26T12:47:40.889Z,-4.90
2024-03-26T12:50:09.866Z,-4.91
2024-03-26T12:52:43.860Z,-4.95
2024-03-26T12:55:14.388Z,-4.98
2024-03-26T12:57:44.567Z,-4.97
2024-03-26T13:00:14.081Z,-4.95
2024-03-26T13:02:42.728Z,-4.93
2024-03-26T13:05:11.529Z,-4.93
2024-03-26T13:07:40.281Z,-4.96
2024-03-26T13:10:09.472Z,-5.02
2024-03-26T13:12:38.208Z,-5.03
2024-03-26T13:15:07.553Z,-5.06
2024-03-26T13:17:36.988Z,-5.09
2024-03-26T13:20:07.631Z,-5.12
2024-03-26T13:22:36.336Z,-5.13
2024-03-26T13:25:05.422Z,-5.13
2024-03-26T13:27:34.139Z,-5.09
2024-03-26T13:30:03.616Z,-5.09
2024-03-26T13:32:32.288Z,-5.12
2024-03-26T13:35:01.160Z,-5.12
2024-03-26T13:37:30.653Z,-5.12
2024-03-26T13:39:59.222Z,-5.11
2024-03-26T13:42:27.861Z,-5.12
2024-03-26T13:44:56.780Z,-5.12
2024-03-26T13:47:26.407Z,-5.12
2024-03-26T13:49:55.427Z,-5.11
2024-03-26T13:52:26.879Z,-5.10
2024-03-26T13:55:01.744Z,-5.10
2024-03-26T13:57:30.797Z,-5.16
2024-03-26T14:00:06.822Z,-5.16
2024-03-26T14:02:44.203Z,-5.13
2024-03-26T14:05:19.911Z,-5.11
2024-03-26T14:11:08.934Z,-5.07
2024-03-26T14:17:00.955Z,-5.08
2024-03-26T14:19:36.488Z,-5.05
2024-03-26T14:22:06.516Z,-5.03
2024-03-26T14:24:45.786Z,-5.01
2024-03-26T14:27:14.519Z,-4.97
2024-03-26T14:29:49.380Z,-4.92
2024-03-26T14:32:19.303Z,-4.89
2024-03-26T14:34:49.573Z,-4.88
2024-03-26T14:37:18.993Z,-4.85
2024-03-26T14:39:47.947Z,-4.83
2024-03-26T14:42:20.777Z,-4.82
2024-03-26T14:44:49.814Z,-4.81
2024-03-26T14:47:55.855Z,-4.78
2024-03-26T14:50:49.760Z,-4.74
2024-03-26T14:53:22.942Z,-4.70
2024-03-26T14:55:51.846Z,-4.67
2024-03-26T15:02:11.539Z,-4.65
2024-03-26T15:04:40.459Z,-4.61
2024-03-26T15:07:18.599Z,-4.59
2024-03-26T15:10:08.059Z,-4.57
2024-03-26T15:12:36.940Z,-4.53
2024-03-26T15:15:14.186Z,-4.50
2024-03-26T15:18:28.305Z,-4.47
2024-03-26T15:24:19.227Z,-4.35
2024-03-26T15:27:06.273Z,-4.30
2024-03-26T15:34:11.707Z,-4.11
2024-03-26T15:37:24.036Z,-4.02
2024-03-26T16:15:30.142Z,-1.94
2024-03-26T16:20:53.956Z,-1.79
2024-03-26T16:23:42.986Z,-1.74
2024-03-26T16:26:17.731Z,-1.70
2024-03-26T16:36:20.877Z,-1.51
2024-03-26T16:42:25.164Z,-1.27
2024-03-26T16:45:07.539Z,-1.17
2024-03-26T17:08:44.885Z,-0.48
2024-03-26T17:22:12.909Z,0.70
2024-03-26T17:24:46.424Z,0.80
2024-03-26T17:27:18.459Z,0.88
2024-03-26T17:29:49.631Z,0.95
2024-03-26T17:33:34.110Z,1.04
2024-03-26T17:36:07.936Z,1.22
2024-03-26T17:38:36.390Z,1.33
2024-03-26T17:41:08.338Z,1.41
2024-03-26T17:46:49.286Z,1.72
2024-03-26T17:49:20.256Z,1.86
2024-03-26T17:54:34.186Z,2.14
2024-03-26T17:59:58.964Z,2.30
2024-03-26T18:02:29.910Z,2.44
2024-03-26T18:04:59.942Z,2.54
2024-03-26T18:07:45.934Z,2.65
2024-03-26T18:10:37.440Z,2.78
2024-03-26T18:13:07.433Z,2.89
2024-03-26T18:15:38.984Z,3.00
2024-03-26T18:21:07.506Z,3.26
2024-03-26T18:23:42.440Z,3.42
2024-03-26T18:26:11.522Z,3.54
2024-03-26T18:28:45.675Z,3.66
2024-03-26T18:34:09.172Z,3.94
2024-03-26T18:36:39.338Z,4.02
2024-03-26T18:39:08.540Z,4.09
2024-03-26T18:41:37.502Z,4.18
2024-03-26T18:44:08.391Z,4.28
2024-03-26T18:50:26.648Z,4.47
2024-03-26T18:53:01.377Z,4.54
2024-03-26T18:55:30.795Z,4.60
2024-03-26T18:58:07.281Z,4.70
2024-03-26T19:00:36.554Z,4.83
2024-03-26T19:03:05.944Z,4.94
2024-03-26T19:05:38.832Z,5.04
2024-03-26T19:08:12.806Z,5.13
2024-03-26T19:10:46.649Z,5.26
2024-03-26T19:13:15.988Z,5.41
2024-03-26T19:15:48.143Z,5.53
2024-03-26T19:18:17.545Z,5.63
2024-03-26T19:20:54.408Z,5.68
2024-03-26T19:23:26.856Z,5.72
2024-03-26T19:26:10.526Z,5.74
2024-03-26T19:28:43.088Z,5.77
2024-03-26T19:31:11.825Z,5.77
2024-03-26T19:33:43.558Z,5.78
2024-03-26T19:36:15.595Z,5.82
2024-03-26T19:38:44.939Z,5.86
2024-03-26T19:41:15.906Z,5.92
2024-03-26T19:43:45.479Z,5.93
2024-03-26T19:46:14.925Z,5.93
2024-03-26T19:48:44.661Z,5.93
2024-03-26T19:51:15.960Z,5.94
2024-03-26T19:53:44.864Z,5.98
2024-03-26T19:56:16.571Z,6.07
2024-03-26T19:58:45.412Z,6.14
2024-03-26T20:01:19.538Z,6.20
2024-03-26T20:03:48.208Z,6.22
2024-03-26T20:06:17.648Z,6.26
2024-03-26T20:08:51.027Z,6.30
2024-03-26T20:11:23.565Z,6.37
2024-03-26T20:29:52.254Z,6.59
2024-03-26T20:32:20.531Z,6.49
2024-03-26T20:34:49.112Z,6.45
2024-03-26T20:37:17.434Z,6.47
2024-03-26T20:39:49.042Z,6.39
2024-03-26T20:42:20.410Z,6.30
2024-03-26T20:44:48.806Z,6.29
2024-03-26T20:47:17.048Z,6.31
2024-03-26T20:49:45.329Z,6.35
2024-03-26T20:52:28.941Z,6.45
2024-03-26T20:54:57.201Z,6.58
2024-03-26T20:57:25.504Z,6.71
2024-03-26T20:59:56.774Z,6.87
2024-03-26T21:02:25.382Z,6.95
2024-03-26T21:04:59.169Z,6.98
2024-03-26T21:07:30.005Z,6.90
2024-03-26T21:09:58.214Z,6.89
2024-03-26T21:12:29.133Z,6.99
2024-03-26T21:24:43.920Z,6.85
2024-03-26T21:27:12.795Z,6.75
2024-03-26T21:29:43.299Z,6.70
2024-03-26T21:32:12.006Z,6.72
2024-03-26T21:34:40.781Z,6.77
2024-03-26T21:48:16.352Z,7.09
2024-03-26T21:50:57.460Z,7.07
2024-03-26T21:53:26.156Z,7.07
2024-03-26T21:56:05.144Z,7.06
2024-03-26T22:01:49.398Z,7.03
2024-03-26T22:04:49.689Z,7.01
2024-03-26T22:07:50.340Z,7.00
2024-03-26T22:10:38.761Z,6.99
2024-03-26T22:13:52.350Z,7.00
2024-03-26T22:17:42.386Z,7.03
2024-03-26T22:20:08.519Z,7.02
2024-03-26T22:26:14.058Z,7.06
2024-03-26T22:29:22.076Z,7.06
2024-03-26T22:34:41.782Z,7.03
2024-03-26T22:37:11.245Z,7.00
2024-03-26T22:39:48.692Z,6.98
2024-03-26T22:42:17.186Z,6.94
2024-03-26T22:45:02.675Z,6.88
2024-03-26T22:47:31.124Z,6.87
2024-03-26T22:50:06.596Z,6.88
2024-03-26T23:06:25.834Z,6.72
2024-03-26T23:08:54.090Z,6.73
2024-03-26T23:11:22.990Z,6.73
2024-03-26T23:13:51.986Z,6.73
2024-03-26T23:16:20.511Z,6.72
2024-03-26T23:18:48.717Z,6.70
2024-03-26T23:21:17.244Z,6.68
2024-03-26T23:23:46.250Z,6.66
2024-03-26T23:26:22.708Z,6.63
2024-03-26T23:41:51.220Z,6.68
2024-03-26T23:44:20.210Z,6.67
2024-03-26T23:46:49.005Z,6.69
2024-03-26T23:49:38.371Z,6.70
2024-03-26T23:52:07.607Z,6.69
